Time;durP1;ratioP1;P1;durP2;ratioP2;P2;SDS_P1;SDS_P2;PMS_P1;PMS_P2;Temp;Humidity;BMP_temperature;BMP_pressure;BME280_temperature;BME280_humidity;BME280_pressure;Samples;Min_cycle;Max_cycle;Signal;HPM_P1;HPM_P2
2023/05/05 00:00:51;;;;;;;4.88;4.35;;;;;;;9.12;88.21;96735.06;5072607;28;20095;-66
2023/05/05 00:03:19;;;;;;;4.53;3.65;;;;;;;9.12;88.52;96729.00;5072600;28;20099;-68
2023/05/05 00:05:46;;;;;;;5.28;4.55;;;;;;;9.19;89.26;96723.56;5072592;28;20051;-67
2023/05/05 00:08:14;;;;;;;10.25;4.00;;;;;;;9.28;89.10;96727.66;5072567;28;20075;-69
2023/05/05 00:10:42;;;;;;;4.60;4.05;;;;;;;9.33;88.62;96730.97;5072521;28;20048;-68
2023/05/05 00:13:11;;;;;;;3.88;3.50;;;;;;;9.40;88.25;96729.03;5072553;28;20055;-68
2023/05/05 00:15:39;;;;;;;6.43;4.03;;;;;;;9.38;88.20;96725.59;5072432;28;20048;-69
2023/05/05 00:18:06;;;;;;;5.00;4.15;;;;;;;9.46;89.04;96728.81;5072411;28;20052;-67
2023/05/05 00:20:33;;;;;;;5.57;3.92;;;;;;;9.54;88.56;96719.94;5072373;28;20479;-67
2023/05/05 00:23:01;;;;;;;7.82;3.78;;;;;;;9.60;88.67;96724.94;5072468;28;20102;-69
2023/05/05 00:25:28;;;;;;;4.78;3.70;;;;;;;9.66;88.38;96719.53;5072424;28;20051;-69
2023/05/05 00:27:56;;;;;;;4.68;3.53;;;;;;;9.72;88.15;96719.34;5072312;28;20555;-67
2023/05/05 00:30:25;;;;;;;4.13;3.38;;;;;;;9.80;88.20;96718.22;5073040;28;20655;-68
2023/05/05 00:32:52;;;;;;;4.95;3.90;;;;;;;9.86;88.10;96718.03;5076064;28;20482;-67
2023/05/05 00:35:19;;;;;;;4.05;3.65;;;;;;;9.88;87.96;96713.63;5075899;28;20055;-69
2023/05/05 00:37:48;;;;;;;7.15;3.72;;;;;;;9.91;88.28;96717.91;5075912;28;20053;-68
2023/05/05 00:40:17;;;;;;;6.40;4.00;;;;;;;9.94;88.06;96712.56;5075870;28;20040;-67
2023/05/05 00:42:46;;;;;;;5.22;3.80;;;;;;;9.98;88.02;96714.16;5075647;28;20132;-66
2023/05/05 00:45:14;;;;;;;4.60;3.83;;;;;;;10.02;88.20;96707.09;5075757;28;20049;-69
2023/05/05 00:47:46;;;;;;;4.20;3.80;;;;;;;10.02;88.14;96702.72;5075697;28;20085;-67
2023/05/05 00:50:21;;;;;;;5.75;3.35;;;;;;;9.96;88.15;96706.38;5075720;28;20053;-68
2023/05/05 00:52:49;;;;;;;5.15;4.10;;;;;;;9.98;87.97;96701.97;5075652;28;20501;-68
2023/05/05 00:55:17;;;;;;;3.55;2.80;;;;;;;10.01;87.62;96702.75;5075611;28;20080;-66
2023/05/05 00:57:45;;;;;;;3.53;3.22;;;;;;;10.04;87.42;96700.03;5075558;28;20086;-67
2023/05/05 01:00:13;;;;;;;4.63;3.60;;;;;;;9.97;87.21;96696.78;5075425;28;20044;-67
2023/05/05 01:02:41;;;;;;;5.70;3.58;;;;;;;9.98;87.07;96693.28;5075447;28;20403;-67
2023/05/05 01:05:12;;;;;;;4.40;3.90;;;;;;;9.94;87.14;96697.72;5075462;28;20070;-67
2023/05/05 01:07:52;;;;;;;4.20;3.80;;;;;;;9.90;86.89;96696.13;5075353;28;20478;-68
2023/05/05 01:10:30;;;;;;;5.25;4.75;;;;;;;9.85;87.09;96695.44;5075089;28;20079;-66
2023/05/05 01:13:08;;;;;;;6.28;3.92;;;;;;;9.71;87.79;96695.88;5075299;28;20052;-68
2023/05/05 01:15:37;;;;;;;6.50;3.80;;;;;;;9.66;88.02;96693.41;5075366;28;20054;-68
2023/05/05 01:18:14;;;;;;;4.78;3.58;;;;;;;9.69;88.62;96692.47;5075312;28;20127;-68
2023/05/05 01:20:49;;;;;;;5.70;3.88;;;;;;;9.68;88.70;96696.84;5075141;28;20131;-69
2023/05/05 01:23:33;;;;;;;3.72;3.22;;;;;;;9.66;88.58;96688.19;5075200;28;20048;-68
2023/05/05 01:26:22;;;;;;;4.72;3.47;;;;;;;9.59;88.76;96682.31;5074992;28;20063;-67
2023/05/05 01:29:21;;;;;;;4.95;3.30;;;;;;;9.52;89.50;96678.19;5074994;28;20529;-67
2023/05/05 01:31:53;;;;;;;3.80;3.40;;;;;;;9.48;89.28;96671.34;5074915;28;20406;-67
2023/05/05 01:34:26;;;;;;;4.05;3.50;;;;;;;9.53;89.12;96668.59;5074877;28;20041;-66
2023/05/05 01:37:03;;;;;;;4.57;3.67;;;;;;;9.57;88.26;96667.59;5074786;28;20139;-69
2023/05/05 01:39:37;;;;;;;5.63;3.13;;;;;;;9.56;88.17;96669.34;5074694;28;20072;-67
2023/05/05 01:42:12;;;;;;;5.03;2.72;;;;;;;9.57;88.07;96663.22;5073694;28;20136;-67
2023/05/05 01:44:42;;;;;;;2.75;2.55;;;;;;;9.56;87.89;96671.09;5074484;28;20120;-68
2023/05/05 01:47:13;;;;;;;5.45;3.67;;;;;;;9.51;87.78;96668.63;5074735;28;20045;-67
2023/05/05 01:49:43;;;;;;;4.72;3.70;;;;;;;9.41;88.77;96668.06;5074659;28;20045;-69
2023/05/05 01:52:11;;;;;;;4.03;3.63;;;;;;;9.35;89.58;96660.44;5074608;28;20132;-68
2023/05/05 01:54:40;;;;;;;4.40;3.60;;;;;;;9.27;90.23;96660.66;5074509;28;20070;-68
2023/05/05 01:57:09;;;;;;;4.80;4.00;;;;;;;9.24;90.29;96663.38;5074553;28;20478;-66
2023/05/05 01:59:38;;;;;;;3.88;3.47;;;;;;;9.22;90.78;96659.97;5074358;28;20127;-66
2023/05/05 02:02:08;;;;;;;4.35;3.92;;;;;;;9.20;91.17;96660.00;5074225;28;20048;-67
2023/05/05 02:04:42;;;;;;;4.18;3.63;;;;;;;9.19;91.14;96663.53;5074261;28;20052;-68
2023/05/05 02:07:11;;;;;;;5.78;3.90;;;;;;;9.24;90.84;96660.75;5074384;28;20050;-67
2023/05/05 02:09:39;;;;;;;4.95;4.25;;;;;;;9.22;90.94;96667.78;5074068;28;20482;-68
2023/05/05 02:12:08;;;;;;;6.40;4.13;;;;;;;9.20;90.93;96667.84;5074148;28;20102;-66
2023/05/05 02:14:37;;;;;;;5.20;3.55;;;;;;;9.24;90.49;96665.97;5074049;28;20121;-66
2023/05/05 02:17:04;;;;;;;6.72;4.68;;;;;;;9.19;90.98;96663.53;5073975;28;20049;-67
2023/05/05 02:19:36;;;;;;;4.40;3.97;;;;;;;9.21;90.93;96668.66;5073978;28;20052;-66
2023/05/05 02:22:05;;;;;;;5.55;3.95;;;;;;;9.19;90.87;96660.91;5073833;28;20080;-67
2023/05/05 02:24:32;;;;;;;7.97;4.63;;;;;;;9.12;91.22;96663.75;5074003;28;20052;-69
2023/05/05 02:27:02;;;;;;;4.80;4.28;;;;;;;9.06;91.60;96663.03;5073842;28;20144;-67
2023/05/05 02:29:35;;;;;;;7.47;4.70;;;;;;;9.03;92.36;96665.72;5073754;28;20087;-67
2023/05/05 02:32:07;;;;;;;6.20;4.97;;;;;;;9.07;92.80;96663.88;5073788;28;20405;-67
2023/05/05 02:34:37;;;;;;;7.85;4.93;;;;;;;9.09;93.02;96654.25;5073681;28;20097;-67
2023/05/05 02:37:09;;;;;;;6.10;5.50;;;;;;;9.05;93.25;96658.72;5073632;28;20379;-68
2023/05/05 02:39:42;;;;;;;7.72;5.43;;;;;;;9.00;94.00;96662.38;5073559;28;20114;-67
2023/05/05 02:42:13;;;;;;;7.95;5.47;;;;;;;9.09;94.20;96664.69;5073549;28;20055;-68
2023/05/05 02:44:41;;;;;;;;;;;;;;;9.07;94.47;96658.66;5073756;28;20059;-69
2023/05/05 02:47:08;;;;;;;7.78;5.32;;;;;;;9.04;94.59;96658.75;5073484;28;19927;-67
2023/05/05 02:49:36;;;;;;;6.70;5.55;;;;;;;9.09;94.79;96656.84;5073397;28;20098;-67
2023/05/05 02:52:05;;;;;;;6.63;5.10;;;;;;;9.15;94.68;96663.66;5073378;28;20501;-68
2023/05/05 02:54:33;;;;;;;6.82;5.65;;;;;;;9.18;94.46;96658.34;5073216;28;20406;-67
2023/05/05 02:57:01;;;;;;;5.78;5.15;;;;;;;9.21;94.46;96653.88;5073293;28;20049;-67
2023/05/05 02:59:36;;;;;;;5.78;5.18;;;;;;;9.31;94.15;96653.59;5073294;28;20045;-68
2023/05/05 03:02:15;;;;;;;5.53;4.78;;;;;;;9.41;93.71;96655.03;5073111;28;20056;-68
2023/05/05 03:04:45;;;;;;;6.03;4.63;;;;;;;9.46;92.84;96654.88;5073157;28;20080;-67
2023/05/05 03:07:22;;;;;;;6.97;4.82;;;;;;;9.50;92.67;96658.22;5073251;28;20506;-68
2023/05/05 03:09:56;;;;;;;6.13;4.80;;;;;;;9.52;91.73;96651.22;5073330;28;20478;-69
2023/05/05 03:12:28;;;;;;;4.53;3.88;;;;;;;9.50;91.55;96650.41;5073065;28;20041;-68
2023/05/05 03:14:58;;;;;;;4.75;4.25;;;;;;;9.49;91.32;96652.19;5073103;28;20045;-67
2023/05/05 03:17:27;;;;;;;5.37;4.30;;;;;;;9.52;91.17;96646.00;5073188;28;20086;-67
2023/05/05 03:19:56;;;;;;;5.47;4.27;;;;;;;9.52;90.84;96651.22;5073037;28;20747;-69
2023/05/05 03:22:26;;;;;;;4.90;4.40;;;;;;;9.48;90.41;96647.84;5072988;28;20064;-66
2023/05/05 03:24:54;;;;;;;4.35;3.95;;;;;;;9.46;90.45;96645.28;5072971;28;20094;-66
2023/05/05 03:27:21;;;;;;;5.05;4.15;;;;;;;9.47;90.73;96657.44;5073135;28;20045;-67
2023/05/05 03:29:48;;;;;;;4.47;4.00;;;;;;;9.50;90.31;96653.88;5073127;28;20048;-68
2023/05/05 03:32:16;;;;;;;4.40;3.95;;;;;;;9.52;90.15;96656.44;5072779;28;20048;-67
2023/05/05 03:34:43;;;;;;;8.35;4.15;;;;;;;9.52;89.56;96646.84;5072869;28;20048;-68
2023/05/05 03:37:11;;;;;;;5.43;3.90;;;;;;;9.54;89.52;96649.41;5072893;28;20072;-68
2023/05/05 03:39:40;;;;;;;4.07;3.67;;;;;;;9.58;89.28;96658.84;5072808;28;20080;-67
2023/05/05 03:42:08;;;;;;;3.95;3.58;;;;;;;9.63;88.97;96651.72;5072719;28;20053;-68
2023/05/05 03:44:35;;;;;;;5.32;3.97;;;;;;;9.71;88.79;96654.94;5072779;28;20053;-66
2023/05/05 03:47:03;;;;;;;8.13;4.43;;;;;;;9.81;88.50;96657.25;5072869;28;20088;-66
2023/05/05 03:49:30;;;;;;;4.63;3.88;;;;;;;9.93;87.87;96661.22;5072876;28;20403;-68
2023/05/05 03:51:58;;;;;;;4.05;3.47;;;;;;;10.11;86.65;96670.19;5072707;28;20052;-67
2023/05/05 03:54:25;;;;;;;3.53;3.10;;;;;;;10.30;85.88;96666.94;5072738;28;20052;-68
2023/05/05 03:56:55;;;;;;;3.00;2.78;;;;;;;10.38;84.04;96667.50;5072699;28;20136;-68
2023/05/05 03:59:22;;;;;;;3.67;3.28;;;;;;;10.48;83.93;96671.53;5072827;28;20394;-67
2023/05/05 04:01:50;;;;;;;3.63;3.17;;;;;;;10.72;83.38;96676.81;5072689;28;20044;-69
2023/05/05 04:04:17;;;;;;;5.03;3.30;;;;;;;10.92;82.17;96669.97;5072601;28;20483;-67
2023/05/05 04:06:45;;;;;;;3.70;3.33;;;;;;;11.11;80.90;96679.78;5075607;28;20044;-69
2023/05/05 04:09:13;;;;;;;6.10;3.42;;;;;;;11.34;80.53;96678.88;5076532;28;20054;-68
2023/05/05 04:11:40;;;;;;;5.68;2.95;;;;;;;11.56;79.28;96685.06;5076419;28;20041;-68
2023/05/05 04:14:09;;;;;;;4.22;2.60;;;;;;;11.83;78.11;96684.84;5076309;28;20048;-68
2023/05/05 04:16:36;;;;;;;2.97;2.10;;;;;;;12.25;76.81;96680.50;5076383;28;20041;-68
2023/05/05 04:19:04;;;;;;;3.67;1.90;;;;;;;12.75;74.28;96671.38;5076243;28;20083;-68
2023/05/05 04:21:31;;;;;;;2.45;2.10;;;;;;;13.23;70.44;96678.00;5076102;28;20056;-68
2023/05/05 04:23:59;;;;;;;2.17;1.98;;;;;;;13.62;69.01;96677.06;5076377;28;20044;-68
2023/05/05 04:26:27;;;;;;;2.47;1.95;;;;;;;13.92;66.82;96687.94;5076226;28;20059;-68
2023/05/05 04:28:55;;;;;;;4.03;2.05;;;;;;;14.14;66.88;96671.94;5076283;28;20045;-68
2023/05/05 04:31:24;;;;;;;1.80;1.70;;;;;;;14.35;65.49;96677.88;5076047;28;20127;-68
2023/05/05 04:33:53;;;;;;;2.05;1.85;;;;;;;14.77;62.97;96681.00;5076077;28;20048;-69
2023/05/05 04:36:20;;;;;;;2.15;1.95;;;;;;;15.14;64.26;96687.91;5075959;28;20084;-67
2023/05/05 04:38:47;;;;;;;2.05;1.45;;;;;;;15.50;62.93;96693.88;5075944;28;20123;-68
2023/05/05 04:41:14;;;;;;;2.10;1.90;;;;;;;15.63;61.84;96691.41;5075770;28;20127;-68
2023/05/05 04:43:43;;;;;;;3.17;1.75;;;;;;;15.83;60.62;96700.81;5075624;28;20503;-68
2023/05/05 04:46:11;;;;;;;4.07;1.98;;;;;;;16.18;60.68;96712.94;5075755;28;20063;-67
2023/05/05 04:48:39;;;;;;;2.55;1.90;;;;;;;16.55;59.49;96702.00;5075941;28;20051;-68
2023/05/05 04:51:08;;;;;;;2.63;1.75;;;;;;;16.75;57.04;96706.09;5075769;28;20048;-68
2023/05/05 04:53:36;;;;;;;1.90;1.75;;;;;;;16.76;55.89;96707.78;5075619;28;20090;-68
2023/05/05 04:56:04;;;;;;;1.95;1.80;;;;;;;16.75;56.23;96698.19;5075630;28;20048;-67
2023/05/05 04:58:31;;;;;;;2.33;2.13;;;;;;;16.80;55.98;96701.38;5075556;28;20135;-68
2023/05/05 05:00:59;;;;;;;2.55;1.88;;;;;;;16.76;55.09;96693.72;5075649;28;20468;-68
2023/05/05 05:03:26;;;;;;;2.75;1.90;;;;;;;16.79;56.85;96704.97;5075452;28;20131;-68
2023/05/05 05:05:55;;;;;;;2.25;2.05;;;;;;;16.92;55.77;96698.94;5075417;28;20044;-68
2023/05/05 05:08:22;;;;;;;2.15;1.95;;;;;;;16.84;54.74;96699.41;5075430;28;20131;-68
2023/05/05 05:10:50;;;;;;;3.28;2.15;;;;;;;16.61;55.61;96712.19;5075374;28;20044;-68
2023/05/05 05:13:17;;;;;;;2.22;1.85;;;;;;;16.68;56.59;96708.25;5075433;28;20094;-68
2023/05/05 05:15:47;;;;;;;3.47;1.88;;;;;;;16.82;55.34;96703.91;5075240;28;20128;-69
2023/05/05 05:18:14;;;;;;;8.45;1.80;;;;;;;16.74;55.38;96706.19;5073938;28;20084;-68
2023/05/05 05:20:41;;;;;;;2.70;2.10;;;;;;;16.79;56.63;96712.03;5075211;28;20135;-68
2023/05/05 05:23:10;;;;;;;2.10;1.85;;;;;;;17.00;54.15;96716.94;5075128;28;20055;-68
2023/05/05 05:25:37;;;;;;;2.50;2.00;;;;;;;17.26;54.56;96709.22;5074973;28;20040;-69
2023/05/05 05:28:04;;;;;;;3.33;2.15;;;;;;;17.22;53.10;96711.22;5075098;28;20052;-69
2023/05/05 05:30:32;;;;;;;2.25;1.90;;;;;;;17.57;53.71;96711.75;5075165;28;20474;-69
2023/05/05 05:33:00;;;;;;;4.22;2.10;;;;;;;17.21;53.93;96706.00;5074992;28;20044;-69
2023/05/05 05:35:27;;;;;;;7.35;2.40;;;;;;;17.16;54.78;96706.34;5074899;28;20094;-69
2023/05/05 05:37:54;;;;;;;2.75;2.00;;;;;;;16.91;53.75;96703.38;5074769;28;20048;-68
2023/05/05 05:40:24;;;;;;;2.22;2.03;;;;;;;16.72;54.44;96701.00;5074634;28;20045;-69
2023/05/05 05:42:51;;;;;;;4.28;2.30;;;;;;;16.82;55.07;96703.09;5074434;28;20147;-68
2023/05/05 05:45:18;;;;;;;2.10;1.90;;;;;;;16.82;53.85;96711.00;5074623;28;20154;-68
2023/05/05 05:47:45;;;;;;;2.35;2.15;;;;;;;16.67;55.27;96713.63;5074594;28;20445;-68
2023/05/05 05:50:13;;;;;;;4.28;2.60;;;;;;;16.65;54.84;96713.72;5074694;28;20502;-68
2023/05/05 05:52:40;;;;;;;2.30;2.10;;;;;;;16.73;54.47;96710.63;5074499;28;20136;-69
2023/05/05 05:55:08;;;;;;;3.80;2.40;;;;;;;16.98;54.09;96711.75;5074561;28;20083;-68
2023/05/05 05:57:37;;;;;;;2.90;2.38;;;;;;;16.82;53.83;96721.59;5074488;28;20143;-69
2023/05/05 06:00:06;;;;;;;5.65;2.30;;;;;;;16.70;54.21;96716.06;5074558;28;20060;-68
2023/05/05 06:02:33;;;;;;;2.97;2.55;;;;;;;16.93;53.81;96721.78;5074376;28;20456;-69
2023/05/05 06:05:01;;;;;;;2.83;2.50;;;;;;;17.00;53.48;96719.59;5074207;28;20054;-68
2023/05/05 06:07:28;;;;;;;2.40;1.63;;;;;;;17.47;53.26;96714.97;5074191;28;20069;-69
2023/05/05 06:09:55;;;;;;;3.75;1.90;;;;;;;17.79;51.10;96714.69;5074254;28;20072;-69
2023/05/05 06:12:23;;;;;;;5.55;2.10;;;;;;;17.82;50.51;96718.94;5074098;28;20052;-69
2023/05/05 06:14:51;;;;;;;2.35;2.13;;;;;;;17.78;52.11;96713.00;5074175;28;20094;-69
2023/05/05 06:17:18;;;;;;;2.72;2.03;;;;;;;17.87;50.34;96716.84;5073963;28;20048;-69
2023/05/05 06:19:46;;;;;;;4.60;2.00;;;;;;;18.05;50.41;96725.38;5073932;28;20486;-69
2023/05/05 06:22:13;;;;;;;2.53;2.10;;;;;;;18.38;49.38;96722.41;5073898;28;20088;-69
2023/05/05 06:24:40;;;;;;;3.60;2.50;;;;;;;17.85;50.41;96731.13;5073902;28;20537;-69
2023/05/05 06:27:08;;;;;;;2.10;1.90;;;;;;;17.98;52.81;96725.88;5073903;28;20040;-69
2023/05/05 06:29:36;;;;;;;2.45;2.22;;;;;;;18.05;50.39;96728.03;5073484;28;20048;-69
2023/05/05 06:32:07;;;;;;;2.65;2.30;;;;;;;18.09;49.07;96728.66;5073711;28;20055;-69
2023/05/05 06:34:38;;;;;;;2.53;1.77;;;;;;;18.26;49.67;96735.53;5073744;28;20482;-69
2023/05/05 06:37:05;;;;;;;3.08;1.92;;;;;;;18.18;49.70;96724.59;5073628;28;20048;-69
2023/05/05 06:39:33;;;;;;;3.40;2.10;;;;;;;18.32;49.40;96728.97;5073568;28;20379;-69
2023/05/05 06:42:00;;;;;;;2.78;2.30;;;;;;;18.42;48.72;96734.50;5073468;28;20494;-69
2023/05/05 06:44:29;;;;;;;2.40;2.03;;;;;;;18.45;50.27;96723.69;5073291;28;20128;-69
2023/05/05 06:47:01;;;;;;;3.38;2.17;;;;;;;18.47;47.78;96728.91;5073473;28;20057;-69
2023/05/05 06:49:30;;;;;;;2.30;2.10;;;;;;;18.22;48.91;96715.53;5073482;28;20463;-67
2023/05/05 06:51:57;;;;;;;3.35;2.50;;;;;;;18.35;49.03;96722.63;5073355;28;20052;-68
2023/05/05 06:54:25;;;;;;;2.83;2.00;;;;;;;18.69;49.31;96728.28;5073356;28;20045;-68
2023/05/05 06:56:52;;;;;;;2.10;1.90;;;;;;;18.82;48.33;96717.72;5073278;28;20101;-67
2023/05/05 06:59:20;;;;;;;2.33;2.13;;;;;;;18.66;48.24;96724.06;5073236;28;20105;-68
2023/05/05 07:01:47;;;;;;;3.90;2.13;;;;;;;18.78;49.72;96718.91;5073251;28;20045;-68
2023/05/05 07:04:15;;;;;;;3.22;2.15;;;;;;;18.73;49.95;96713.91;5073364;28;20162;-67
2023/05/05 07:06:44;;;;;;;2.17;1.83;;;;;;;18.67;48.42;96728.38;5073322;28;20132;-69
2023/05/05 07:09:11;;;;;;;2.63;2.30;;;;;;;18.62;50.05;96719.06;5073194;28;20055;-69
2023/05/05 07:11:38;;;;;;;4.85;1.90;;;;;;;18.45;50.29;96715.75;5073221;28;20045;-69
2023/05/05 07:14:05;;;;;;;2.30;1.95;;;;;;;18.36;49.42;96722.53;5073113;28;20109;-69
2023/05/05 07:16:33;;;;;;;6.65;2.38;;;;;;;18.28;48.74;96715.13;5073247;28;20217;-69
2023/05/05 07:19:04;;;;;;;2.45;2.05;;;;;;;18.06;49.81;96723.56;5073210;28;20044;-69
2023/05/05 07:21:31;;;;;;;;;;;;;;;18.25;49.88;96731.19;5073453;28;20049;-69
2023/05/05 07:24:00;;;;;;;2.35;2.00;;;;;;;18.30;49.89;96728.22;5073044;28;19975;-69
2023/05/05 07:26:27;;;;;;;2.55;2.08;;;;;;;17.84;50.79;96709.09;5073042;28;20048;-68
2023/05/05 07:28:56;;;;;;;4.50;2.20;;;;;;;17.90;50.99;96708.72;5072917;28;20044;-69
2023/05/05 07:31:23;;;;;;;2.70;2.13;;;;;;;18.03;51.04;96710.56;5073097;28;20112;-68
2023/05/05 07:33:50;;;;;;;6.15;1.95;;;;;;;18.12;50.13;96714.44;5072997;28;20090;-68
2023/05/05 07:36:18;;;;;;;2.38;2.15;;;;;;;18.24;48.97;96710.94;5072936;28;20452;-68
2023/05/05 07:38:45;;;;;;;3.88;2.10;;;;;;;18.36;50.79;96711.94;5073034;28;20051;-68
2023/05/05 07:41:14;;;;;;;3.83;2.15;;;;;;;18.37;50.31;96713.66;5075403;28;20044;-68
2023/05/05 07:43:42;;;;;;;5.20;2.45;;;;;;;18.54;49.51;96727.53;5076704;28;20056;-69
2023/05/05 07:46:09;;;;;;;4.13;2.08;;;;;;;18.57;49.24;96714.09;5076890;28;20052;-69
2023/05/05 07:48:37;;;;;;;3.17;2.25;;;;;;;18.60;48.84;96721.81;5077080;28;20406;-69
2023/05/05 07:51:05;;;;;;;3.15;2.00;;;;;;;18.63;48.52;96729.56;5076897;28;20547;-68
2023/05/05 07:53:32;;;;;;;3.25;1.92;;;;;;;18.50;49.55;96737.50;5076868;28;20044;-68
2023/05/05 07:55:59;;;;;;;2.42;1.90;;;;;;;18.07;48.58;96727.94;5076696;28;20090;-68
2023/05/05 07:58:29;;;;;;;6.03;2.20;;;;;;;17.96;49.67;96736.56;5076726;28;20044;-68
2023/05/05 08:00:56;;;;;;;3.95;2.10;;;;;;;18.08;48.46;96734.91;5076667;28;20084;-68
2023/05/05 08:03:23;;;;;;;2.40;2.17;;;;;;;18.36;48.76;96750.81;5076511;28;20072;-68
2023/05/05 08:05:50;;;;;;;1.98;1.60;;;;;;;18.20;49.17;96738.59;5076681;28;20068;-67
2023/05/05 08:08:18;;;;;;;2.13;2.00;;;;;;;17.84;49.08;96746.16;5076570;28;20478;-68
2023/05/05 08:10:45;;;;;;;3.05;2.00;;;;;;;17.35;50.17;96736.88;5076520;28;20118;-67
2023/05/05 08:13:13;;;;;;;2.60;2.03;;;;;;;17.26;51.70;96748.88;5076529;28;20044;-67
2023/05/05 08:15:43;;;;;;;2.67;1.92;;;;;;;16.99;51.17;96747.81;5076481;28;20048;-68
2023/05/05 08:18:10;;;;;;;;;;;;;;;17.09;52.23;96757.84;5076632;28;20053;-67
2023/05/05 08:20:38;;;;;;;2.47;2.13;;;;;;;16.88;52.24;96748.47;5076200;28;19964;-67
2023/05/05 08:23:05;;;;;;;5.70;2.28;;;;;;;16.70;52.57;96746.94;5076096;28;20062;-67
2023/05/05 08:25:32;;;;;;;3.50;2.20;;;;;;;16.88;52.03;96747.59;5076191;28;20048;-68
2023/05/05 08:27:59;;;;;;;3.17;2.30;;;;;;;16.91;53.45;96748.28;5076120;28;20052;-68
2023/05/05 08:30:27;;;;;;;2.53;2.30;;;;;;;16.92;52.57;96742.03;5076146;28;20048;-67
2023/05/05 08:32:56;;;;;;;2.83;2.10;;;;;;;17.09;54.84;96744.63;5075979;28;20127;-67
2023/05/05 08:35:24;;;;;;;2.33;2.10;;;;;;;16.89;51.53;96736.13;5076056;28;20068;-68
2023/05/05 08:37:52;;;;;;;6.88;2.25;;;;;;;16.91;52.12;96740.34;5076123;28;20055;-68
2023/05/05 08:40:21;;;;;;;2.25;1.88;;;;;;;16.94;52.55;96736.66;5076034;28;20106;-67
2023/05/05 08:42:48;;;;;;;2.47;2.28;;;;;;;16.97;52.07;96735.63;5075510;28;20063;-68
2023/05/05 08:45:15;;;;;;;2.30;1.92;;;;;;;16.89;51.40;96746.69;5075867;28;20049;-69
2023/05/05 08:47:44;;;;;;;2.20;1.88;;;;;;;16.79;52.52;96741.09;5075812;28;20562;-68
2023/05/05 08:50:14;;;;;;;4.38;2.03;;;;;;;17.03;51.28;96735.25;5075854;28;20044;-67
2023/05/05 08:52:48;;;;;;;2.33;2.13;;;;;;;17.21;51.48;96735.94;5075432;28;20076;-67
2023/05/05 08:55:24;;;;;;;3.13;2.20;;;;;;;17.74;50.09;96731.81;5075661;28;20049;-67
2023/05/05 08:57:53;;;;;;;1.98;1.83;;;;;;;17.70;49.77;96730.31;5075614;28;20048;-69
2023/05/05 09:00:21;;;;;;;3.10;2.40;;;;;;;17.66;52.95;96735.81;5075537;28;20051;-67
2023/05/05 09:02:48;;;;;;;3.63;2.38;;;;;;;17.75;50.23;96744.09;5075445;28;20045;-68
2023/05/05 09:05:18;;;;;;;2.58;2.05;;;;;;;17.62;50.19;96729.03;5075532;28;20053;-68
2023/05/05 09:07:46;;;;;;;2.85;2.10;;;;;;;17.76;48.72;96735.22;5075499;28;20487;-67
2023/05/05 09:10:13;;;;;;;2.67;1.95;;;;;;;17.79;49.04;96730.56;5075364;28;20550;-69
2023/05/05 09:12:41;;;;;;;3.60;2.13;;;;;;;17.76;51.22;96730.75;5075389;28;20044;-69
2023/05/05 09:15:10;;;;;;;2.20;2.00;;;;;;;17.95;48.56;96734.88;5075201;28;20489;-69
2023/05/05 09:17:37;;;;;;;3.35;2.13;;;;;;;18.00;49.76;96727.47;5075253;28;20084;-67
2023/05/05 09:20:07;;;;;;;1.95;1.60;;;;;;;18.35;47.56;96734.06;5075162;28;20136;-69
2023/05/05 09:22:40;;;;;;;2.35;1.92;;;;;;;18.73;47.83;96727.16;5075065;28;20079;-68
2023/05/05 09:25:10;;;;;;;2.63;2.00;;;;;;;18.68;47.34;96731.91;5075072;28;20132;-69
2023/05/05 09:27:39;;;;;;;2.03;1.65;;;;;;;18.71;47.11;96734.34;5075022;28;20049;-68
2023/05/05 09:30:08;;;;;;;3.25;2.17;;;;;;;18.66;46.28;96728.53;5074987;28;20051;-69
2023/05/05 09:32:46;;;;;;;3.33;1.80;;;;;;;18.94;47.96;96729.28;5075007;28;20045;-67
2023/05/05 09:35:13;;;;;;;3.60;1.98;;;;;;;19.26;46.29;96722.72;5074807;28;20132;-68
2023/05/05 09:37:43;;;;;;;1.92;1.80;;;;;;;19.32;45.77;96722.25;5074872;28;20045;-69
2023/05/05 09:40:12;;;;;;;1.85;1.75;;;;;;;19.16;46.66;96710.09;5074828;28;20514;-67
2023/05/05 09:42:40;;;;;;;2.58;1.80;;;;;;;19.17;45.96;96719.75;5074725;28;20056;-67
2023/05/05 09:45:26;;;;;;;2.10;1.90;;;;;;;19.26;46.78;96718.25;5074689;28;20044;-69
2023/05/05 09:47:53;;;;;;;2.03;1.80;;;;;;;19.04;44.51;96722.38;5074668;28;20501;-69
2023/05/05 09:50:22;;;;;;;2.63;1.70;;;;;;;19.01;45.64;96717.28;5074661;28;20041;-67
2023/05/05 09:52:58;;;;;;;2.85;1.90;;;;;;;19.14;46.12;96712.00;5074545;28;20044;-67
2023/05/05 09:55:26;;;;;;;2.15;1.60;;;;;;;19.14;44.53;96716.47;5074568;28;20045;-67
2023/05/05 09:57:53;;;;;;;1.80;1.65;;;;;;;18.87;45.82;96696.22;5074447;28;20051;-68
2023/05/05 10:00:21;;;;;;;2.85;1.77;;;;;;;19.01;45.67;96716.44;5074400;28;20056;-68
2023/05/05 10:02:48;;;;;;;2.97;2.00;;;;;;;19.05;47.73;96708.16;5073666;28;20040;-67
2023/05/05 10:05:17;;;;;;;5.88;2.30;;;;;;;19.18;46.04;96712.66;5074153;28;20106;-68
2023/05/05 10:07:46;;;;;;;2.17;1.98;;;;;;;19.13;46.37;96709.47;5074325;28;20057;-67
2023/05/05 10:10:16;;;;;;;1.92;1.80;;;;;;;19.09;46.37;96692.94;5074196;28;20045;-69
2023/05/05 10:12:46;;;;;;;3.00;1.95;;;;;;;19.02;47.32;96704.91;5074214;28;20084;-67
2023/05/05 10:15:15;;;;;;;2.03;1.73;;;;;;;18.96;45.83;96700.84;5074251;28;20098;-67
2023/05/05 10:17:47;;;;;;;2.00;1.77;;;;;;;19.24;46.04;96684.84;5074087;28;20091;-68
2023/05/05 10:20:15;;;;;;;4.18;2.00;;;;;;;19.29;45.49;96699.47;5074072;28;20056;-67
2023/05/05 10:22:52;;;;;;;3.22;1.92;;;;;;;19.11;47.87;96698.97;5074075;28;20045;-67
2023/05/05 10:25:29;;;;;;;5.75;2.25;;;;;;;19.00;44.39;96693.53;5073781;28;20457;-69
2023/05/05 10:28:00;;;;;;;3.17;2.40;;;;;;;19.02;46.02;96689.00;5073902;28;20075;-68
2023/05/05 10:30:30;;;;;;;2.72;1.83;;;;;;;19.16;45.94;96682.72;5073733;28;20056;-68
2023/05/05 10:33:03;;;;;;;4.35;1.77;;;;;;;19.08;44.24;96683.25;5073852;28;20049;-68
2023/05/05 10:35:33;;;;;;;2.33;1.80;;;;;;;19.27;44.42;96681.97;5073712;28;20083;-68
2023/05/05 10:38:01;;;;;;;2.97;1.92;;;;;;;19.32;45.34;96678.03;5073773;28;20123;-68
2023/05/05 10:40:31;;;;;;;2.95;1.80;;;;;;;19.34;44.30;96677.06;5073695;28;20076;-67
2023/05/05 10:42:59;;;;;;;2.50;1.85;;;;;;;19.28;45.50;96673.06;5073174;28;20051;-67
2023/05/05 10:45:26;;;;;;;2.75;2.00;;;;;;;19.29;46.39;96674.75;5073517;28;20074;-68
2023/05/05 10:48:01;;;;;;;3.28;2.10;;;;;;;19.21;44.12;96677.97;5073535;28;20048;-69
2023/05/05 10:50:33;;;;;;;2.83;1.90;;;;;;;19.18;45.00;96678.19;5073579;28;20082;-69
2023/05/05 10:53:11;;;;;;;3.92;1.80;;;;;;;19.23;45.28;96667.25;5073475;28;20102;-69
2023/05/05 10:55:44;;;;;;;2.05;1.73;;;;;;;19.29;45.64;96664.13;5073088;28;20056;-68
2023/05/05 10:58:32;;;;;;;2.90;1.88;;;;;;;19.37;45.00;96663.59;5073380;28;20040;-68
2023/05/05 11:00:59;;;;;;;2.95;1.80;;;;;;;19.48;45.35;96663.69;5073356;28;20048;-68
2023/05/05 11:03:26;;;;;;;2.33;1.70;;;;;;;19.56;44.74;96671.91;5073208;28;20482;-68
2023/05/05 11:06:15;;;;;;;1.67;1.58;;;;;;;19.37;44.83;96642.38;5073234;28;20044;-69
2023/05/05 11:08:44;;;;;;;1.85;1.70;;;;;;;19.40;44.26;96658.06;5073330;28;20071;-68
2023/05/05 11:11:13;;;;;;;2.35;1.95;;;;;;;19.39;44.14;96662.50;5073086;28;20091;-68
2023/05/05 11:13:41;;;;;;;2.67;1.63;;;;;;;19.31;44.80;96656.94;5073091;28;20098;-67
2023/05/05 11:16:44;;;;;;;1.90;1.80;;;;;;;19.42;45.46;96656.16;5073119;28;20044;-68
2023/05/05 11:19:47;;;;;;;2.55;1.58;;;;;;;19.36;46.15;96643.34;5073067;28;20438;-68
2023/05/05 11:22:16;;;;;;;2.50;1.80;;;;;;;19.57;46.59;96647.06;5073050;28;20495;-67
2023/05/05 11:24:43;;;;;;;7.53;1.95;;;;;;;19.27;44.58;96652.81;5072974;28;20045;-68
2023/05/05 11:27:13;;;;;;;3.10;1.80;;;;;;;19.22;45.27;96646.97;5073051;28;20087;-66
2023/05/05 11:30:10;;;;;;;2.20;1.83;;;;;;;19.47;44.61;96637.28;5072990;28;20053;-68
2023/05/05 11:32:39;;;;;;;2.00;1.48;;;;;;;19.36;44.71;96636.25;5072856;28;20106;-67
2023/05/05 11:35:11;;;;;;;1.90;1.70;;;;;;;18.89;43.68;96638.63;5072958;28;20514;-67
2023/05/05 11:37:42;;;;;;;1.92;1.73;;;;;;;19.02;44.93;96626.22;5073085;28;20048;-69
2023/05/05 11:40:24;;;;;;;1.60;1.50;;;;;;;19.26;44.10;96620.13;5073078;28;20490;-68
2023/05/05 11:43:06;;;;;;;2.05;1.67;;;;;;;18.97;43.63;96631.00;5072621;28;20048;-68
2023/05/05 11:45:34;;;;;;;3.95;2.00;;;;;;;18.84;45.42;96623.06;5072753;28;20059;-66
2023/05/05 11:48:26;;;;;;;4.60;2.00;;;;;;;18.78;44.71;96618.22;5072827;28;20044;-68